createdAt,value
2023-03-22T00:02:01.925Z,7.60
2023-03-22T00:04:41.498Z,7.50
2023-03-22T00:07:19.091Z,7.30
2023-03-22T00:09:58.979Z,7.00
2023-03-22T00:12:37.463Z,7.10
2023-03-22T00:15:15.580Z,7.70
2023-03-22T00:17:54.272Z,7.50
2023-03-22T00:20:31.442Z,7.70
2023-03-22T00:23:09.306Z,7.60
2023-03-22T00:25:47.768Z,7.60
2023-03-22T00:28:33.285Z,7.80
2023-03-22T00:31:11.906Z,7.90
2023-03-22T00:33:51.481Z,7.80
2023-03-22T00:36:32.395Z,8.10
2023-03-22T00:39:12.437Z,8.00
2023-03-22T00:41:47.898Z,8.10
2023-03-22T00:44:23.572Z,8.20
2023-03-22T00:47:03.908Z,8.10
2023-03-22T00:49:43.738Z,8.30
2023-03-22T00:52:22.595Z,8.20
2023-03-22T00:55:00.351Z,7.70
2023-03-22T00:57:38.061Z,8.60
2023-03-22T01:00:17.667Z,8.10
2023-03-22T01:02:59.922Z,8.10
2023-03-22T01:05:39.028Z,8.40
2023-03-22T01:08:16.797Z,8.60
2023-03-22T01:10:56.338Z,8.40
2023-03-22T01:13:33.809Z,8.40
2023-03-22T01:16:10.983Z,8.40
2023-03-22T01:18:48.305Z,8.80
2023-03-22T01:21:24.175Z,8.70
2023-03-22T01:24:02.720Z,8.80
2023-03-22T01:26:41.244Z,8.30
2023-03-22T01:29:18.069Z,8.60
2023-03-22T01:31:54.746Z,8.50
2023-03-22T01:34:34.844Z,9.00
2023-03-22T01:37:14.556Z,8.90
2023-03-22T01:39:51.951Z,8.00
2023-03-22T01:42:31.419Z,9.00
2023-03-22T01:45:39.301Z,8.70
2023-03-22T01:48:33.658Z,8.20
2023-03-22T01:51:13.574Z,8.00
2023-03-22T01:53:51.788Z,8.50
2023-03-22T01:56:34.249Z,8.30
2023-03-22T01:59:14.336Z,8.70
2023-03-22T02:01:51.170Z,8.80
2023-03-22T02:04:36.653Z,8.10
2023-03-22T02:07:15.640Z,8.70
2023-03-22T02:09:54.808Z,8.20
2023-03-22T02:12:43.495Z,8.70
2023-03-22T02:15:26.260Z,8.40
2023-03-22T02:18:17.514Z,8.40
2023-03-22T02:21:51.036Z,7.90
2023-03-22T02:24:49.581Z,8.30
2023-03-22T02:27:44.406Z,8.20
2023-03-22T02:30:58.131Z,8.30
2023-03-22T02:34:15.763Z,8.10
2023-03-22T02:37:24.372Z,8.20
2023-03-22T02:40:10.706Z,8.30
2023-03-22T02:42:59.167Z,8.30
2023-03-22T02:45:43.264Z,8.10
2023-03-22T02:48:28.013Z,8.00
2023-03-22T02:51:13.223Z,7.80
2023-03-22T02:53:54.302Z,8.00
2023-03-22T02:56:38.538Z,7.60
2023-03-22T03:01:58.176Z,7.50
2023-03-22T03:07:20.442Z,7.70
2023-03-22T03:09:59.750Z,7.40
2023-03-22T03:12:40.700Z,7.90
2023-03-22T03:15:24.693Z,7.90
2023-03-22T03:18:17.408Z,7.80
2023-03-22T03:21:03.207Z,7.80
2023-03-22T03:23:49.655Z,8.10
2023-03-22T03:26:35.426Z,7.30
2023-03-22T03:29:20.642Z,8.00
2023-03-22T03:32:03.912Z,7.90
2023-03-22T03:34:49.751Z,7.60
2023-03-22T03:37:31.024Z,7.30
2023-03-22T03:40:12.985Z,7.20
2023-03-22T03:42:54.554Z,7.30
2023-03-22T03:45:34.938Z,7.60
2023-03-22T03:48:17.427Z,7.70
2023-03-22T03:51:01.411Z,7.40
2023-03-22T03:53:39.920Z,7.50
2023-03-22T03:56:21.968Z,7.80
2023-03-22T03:58:59.560Z,7.50
2023-03-22T04:01:36.967Z,7.50
2023-03-22T04:04:15.459Z,6.90
2023-03-22T04:06:55.424Z,7.40
2023-03-22T04:09:34.390Z,6.80
2023-03-22T04:12:10.716Z,7.30
2023-03-22T04:14:47.638Z,7.00
2023-03-22T04:17:28.350Z,7.20
2023-03-22T04:20:06.344Z,6.80
2023-03-22T04:22:44.124Z,6.90
2023-03-22T04:25:22.866Z,7.30
2023-03-22T04:28:01.648Z,7.20
2023-03-22T04:30:40.146Z,7.10
2023-03-22T04:33:19.756Z,7.10
2023-03-22T04:36:01.483Z,7.10
2023-03-22T04:38:39.482Z,6.80
2023-03-22T04:41:19.040Z,6.90
2023-03-22T04:43:57.651Z,7.30
2023-03-22T04:46:38.029Z,6.60
2023-03-22T04:49:15.046Z,6.60
2023-03-22T04:51:53.292Z,7.30
2023-03-22T04:54:34.067Z,6.50
2023-03-22T04:57:14.627Z,6.70
2023-03-22T04:59:54.576Z,6.80
2023-03-22T05:02:32.415Z,6.80
2023-03-22T05:05:11.857Z,6.60
2023-03-22T05:07:51.646Z,6.50
2023-03-22T05:10:30.083Z,6.70
2023-03-22T05:13:09.806Z,6.60
2023-03-22T05:15:49.866Z,7.10
2023-03-22T05:18:29.052Z,6.30
2023-03-22T05:21:08.836Z,6.30
2023-03-22T05:23:47.104Z,6.40
2023-03-22T05:26:28.217Z,6.50
2023-03-22T05:29:07.209Z,6.50
2023-03-22T05:31:44.563Z,6.70
2023-03-22T05:34:23.073Z,6.70
2023-03-22T05:37:05.550Z,6.60
2023-03-22T05:39:42.550Z,6.60
2023-03-22T05:42:19.927Z,6.10
2023-03-22T05:44:56.394Z,6.20
2023-03-22T05:47:34.040Z,6.00
2023-03-22T05:50:12.929Z,5.70
2023-03-22T05:52:49.139Z,5.90
2023-03-22T05:55:27.343Z,6.10
2023-03-22T05:58:05.280Z,6.10
2023-03-22T06:00:44.166Z,6.20
2023-03-22T06:03:20.763Z,6.20
2023-03-22T06:05:57.273Z,6.30
2023-03-22T06:08:35.617Z,6.10
2023-03-22T06:11:13.821Z,5.80
2023-03-22T06:13:51.979Z,6.00
2023-03-22T06:16:30.727Z,5.80
2023-03-22T06:19:05.712Z,6.10
2023-03-22T06:21:43.436Z,6.00
2023-03-22T06:24:19.444Z,6.40
2023-03-22T06:26:59.616Z,6.10
2023-03-22T06:29:39.947Z,6.30
2023-03-22T06:32:17.051Z,6.70
2023-03-22T06:34:53.501Z,6.50
2023-03-22T06:37:30.636Z,6.30
2023-03-22T06:40:06.990Z,6.00
2023-03-22T06:42:44.750Z,6.50
2023-03-22T06:45:21.670Z,6.10
2023-03-22T06:47:58.134Z,6.40
2023-03-22T06:50:38.561Z,6.70
2023-03-22T06:53:16.040Z,6.90
2023-03-22T06:55:55.309Z,6.30
2023-03-22T06:58:31.783Z,6.50
2023-03-22T07:01:10.326Z,6.50
2023-03-22T07:03:45.641Z,6.50
2023-03-22T07:06:23.037Z,6.20
2023-03-22T07:09:01.140Z,6.40
2023-03-22T07:11:39.810Z,6.20
2023-03-22T07:14:17.099Z,6.70
2023-03-22T07:16:53.249Z,6.10
2023-03-22T07:19:28.910Z,6.00
2023-03-22T07:22:05.075Z,5.90
2023-03-22T07:24:53.814Z,5.90
2023-03-22T07:27:32.121Z,6.30
2023-03-22T07:30:10.746Z,5.90
2023-03-22T07:32:45.705Z,6.00
2023-03-22T07:35:24.993Z,5.80
2023-03-22T07:38:01.238Z,5.80
2023-03-22T07:40:40.149Z,5.70
2023-03-22T07:43:16.938Z,6.20
2023-03-22T07:45:53.202Z,5.80
2023-03-22T07:48:31.324Z,5.80
2023-03-22T07:51:07.209Z,5.60
2023-03-22T07:53:41.963Z,5.90
2023-03-22T07:56:18.624Z,5.50
2023-03-22T07:58:55.047Z,5.60
2023-03-22T08:01:32.240Z,6.00
2023-03-22T08:04:06.865Z,5.60
2023-03-22T08:06:44.288Z,5.50
2023-03-22T08:09:22.644Z,5.50
2023-03-22T08:11:59.627Z,5.90
2023-03-22T08:14:37.486Z,5.90
2023-03-22T08:17:12.310Z,5.50
2023-03-22T08:19:48.108Z,5.70
2023-03-22T08:22:28.175Z,5.50
2023-03-22T08:25:04.138Z,5.30
2023-03-22T08:27:39.924Z,5.60
2023-03-22T08:30:17.475Z,5.40
2023-03-22T08:32:53.732Z,5.40
2023-03-22T08:35:32.637Z,5.40
2023-03-22T08:38:08.724Z,5.00
2023-03-22T08:40:51.185Z,5.20
2023-03-22T08:43:29.704Z,5.40
2023-03-22T08:46:12.217Z,5.50
2023-03-22T08:48:52.592Z,5.30
2023-03-22T08:51:32.612Z,5.30
2023-03-22T08:54:11.774Z,5.30
2023-03-22T08:56:51.750Z,5.20
2023-03-22T08:59:29.879Z,5.10
2023-03-22T09:02:07.467Z,5.50
2023-03-22T09:04:46.913Z,4.80
2023-03-22T09:07:25.345Z,5.20
2023-03-22T09:10:04.645Z,4.80
2023-03-22T09:12:44.553Z,5.20
2023-03-22T09:15:20.891Z,5.10
2023-03-22T09:17:58.740Z,4.80
2023-03-22T09:20:35.918Z,4.90
2023-03-22T09:23:12.266Z,4.90
2023-03-22T09:25:49.149Z,5.00
2023-03-22T09:28:25.931Z,5.00
2023-03-22T09:31:05.367Z,4.80
2023-03-22T09:33:44.179Z,5.00
2023-03-22T09:36:21.992Z,4.60
2023-03-22T09:39:02.488Z,4.80
2023-03-22T09:41:46.783Z,5.00
2023-03-22T09:44:32.751Z,4.70
2023-03-22T09:47:15.075Z,4.40
2023-03-22T09:49:57.884Z,4.40
2023-03-22T09:52:34.185Z,4.60
2023-03-22T09:55:22.721Z,4.80
2023-03-22T09:58:08.559Z,4.90
2023-03-22T10:00:51.269Z,4.70
2023-03-22T10:03:45.810Z,4.50
2023-03-22T10:06:28.245Z,4.50
2023-03-22T10:09:16.100Z,4.60
2023-03-22T10:11:57.382Z,4.80
2023-03-22T10:14:38.356Z,4.60
2023-03-22T10:17:19.234Z,4.70
2023-03-22T10:20:00.661Z,4.70
2023-03-22T10:22:40.963Z,4.70
2023-03-22T10:25:25.613Z,4.70
2023-03-22T10:28:03.772Z,4.30
2023-03-22T10:30:43.491Z,4.40
2023-03-22T10:33:31.034Z,4.80
2023-03-22T10:36:13.949Z,4.40
2023-03-22T10:38:54.946Z,4.40
2023-03-22T10:41:34.765Z,4.60
2023-03-22T10:44:20.980Z,4.40
2023-03-22T10:46:57.477Z,4.50
2023-03-22T10:49:39.805Z,4.60
2023-03-22T10:52:34.939Z,4.40
2023-03-22T10:55:14.568Z,4.30
2023-03-22T10:58:03.931Z,4.40
2023-03-22T11:00:42.250Z,4.30
2023-03-22T11:03:32.985Z,4.30
2023-03-22T11:06:12.784Z,4.40
2023-03-22T11:08:50.998Z,4.40
2023-03-22T11:11:29.920Z,4.50
2023-03-22T11:14:15.237Z,4.50
2023-03-22T11:17:10.141Z,4.30
2023-03-22T11:19:56.292Z,4.50
2023-03-22T11:22:38.766Z,4.70
2023-03-22T11:25:21.876Z,4.50
2023-03-22T11:27:59.532Z,4.40
2023-03-22T11:30:38.440Z,4.60
2023-03-22T11:33:26.022Z,4.50
2023-03-22T11:36:05.539Z,4.10
2023-03-22T11:38:47.367Z,4.50
2023-03-22T11:41:29.304Z,4.30
2023-03-22T11:44:08.122Z,4.70
2023-03-22T11:46:52.980Z,4.30
2023-03-22T11:49:44.098Z,4.20
2023-03-22T11:52:24.729Z,4.60
2023-03-22T11:55:03.744Z,4.40
2023-03-22T11:57:39.729Z,4.10
2023-03-22T12:00:26.225Z,4.40
2023-03-22T12:03:05.493Z,4.60
2023-03-22T12:05:46.719Z,4.60
2023-03-22T12:08:29.363Z,4.50
2023-03-22T12:11:11.243Z,4.90
2023-03-22T12:13:53.496Z,4.00
2023-03-22T12:16:37.150Z,4.20
2023-03-22T12:19:29.501Z,4.40
2023-03-22T12:22:13.279Z,4.20
2023-03-22T12:24:48.790Z,4.50
2023-03-22T12:27:28.884Z,4.10
2023-03-22T12:30:09.145Z,4.60
2023-03-22T12:32:52.331Z,4.50
2023-03-22T12:35:32.985Z,4.30
2023-03-22T12:38:23.469Z,4.50
2023-03-22T12:41:04.909Z,4.10
2023-03-22T12:43:53.656Z,4.10
2023-03-22T12:46:33.311Z,4.10
2023-03-22T12:49:20.503Z,4.60
2023-03-22T12:52:07.053Z,4.20
2023-03-22T12:54:43.340Z,4.40
2023-03-22T12:57:22.546Z,4.30
2023-03-22T13:00:01.880Z,4.20
2023-03-22T13:02:38.467Z,4.40
2023-03-22T13:05:16.419Z,4.40
2023-03-22T13:08:03.689Z,4.20
2023-03-22T13:11:01.736Z,4.20
2023-03-22T13:13:48.420Z,4.30
2023-03-22T13:16:49.642Z,4.20
2023-03-22T13:19:38.205Z,4.30
2023-03-22T13:22:32.027Z,4.00
2023-03-22T13:25:30.955Z,4.10
2023-03-22T13:28:28.545Z,4.30
2023-03-22T13:31:10.855Z,3.80
2023-03-22T13:33:56.746Z,4.00
2023-03-22T13:36:38.485Z,4.00
2023-03-22T13:39:20.219Z,4.00
2023-03-22T13:42:09.123Z,4.20
2023-03-22T13:44:47.743Z,3.90
2023-03-22T13:47:39.540Z,4.00
2023-03-22T13:50:23.237Z,4.30
2023-03-22T13:53:04.209Z,4.00
2023-03-22T13:56:00.938Z,4.00
2023-03-22T13:58:53.104Z,4.20
2023-03-22T14:01:38.078Z,4.00
2023-03-22T14:04:24.791Z,4.00
2023-03-22T14:07:13.220Z,3.90
2023-03-22T14:09:55.853Z,4.00
2023-03-22T14:12:47.703Z,4.00
2023-03-22T14:15:26.951Z,4.30
2023-03-22T14:18:10.822Z,3.80
2023-03-22T14:20:53.069Z,4.20
